Time;durP1;ratioP1;P1;durP2;ratioP2;P2;SDS_P1;SDS_P2;PMS_P1;PMS_P2;Temp;Humidity;BMP_temperature;BMP_pressure;BME280_temperature;BME280_humidity;BME280_pressure;Samples;Min_cycle;Max_cycle;Signal;HPM_P1;HPM_P2
2022/10/26 00:02:13;;;;;;;0.50;0.40;;;10.80;99.90;;;;;;5033073;28;20438;-75
2022/10/26 00:04:40;;;;;;;0.50;0.40;;;10.80;99.90;;;;;;5032369;28;20545;-74
2022/10/26 00:07:07;;;;;;;0.50;0.40;;;10.80;99.90;;;;;;5032930;28;20282;-75
2022/10/26 00:09:34;;;;;;;0.50;0.40;;;10.80;99.90;;;;;;5033055;28;20534;-75
2022/10/26 00:12:01;;;;;;;0.50;0.40;;;10.80;99.90;;;;;;5032082;28;20206;-75
2022/10/26 00:14:28;;;;;;;0.50;0.40;;;10.80;99.90;;;;;;5031843;28;20461;-75
2022/10/26 00:16:56;;;;;;;0.50;0.40;;;10.90;99.90;;;;;;5032213;28;20448;-75
2022/10/26 00:19:23;;;;;;;0.50;0.40;;;10.90;99.90;;;;;;5032173;28;20215;-75
2022/10/26 00:21:50;;;;;;;0.50;0.40;;;10.80;99.90;;;;;;5038799;28;20930;-75
2022/10/26 00:24:17;;;;;;;0.50;0.40;;;10.80;99.90;;;;;;5051586;28;20540;-75
2022/10/26 00:26:43;;;;;;;0.50;0.40;;;10.90;99.90;;;;;;5051770;28;20205;-75
2022/10/26 00:29:12;;;;;;;0.50;0.40;;;10.90;99.90;;;;;;5053131;28;20563;-75
2022/10/26 00:31:39;;;;;;;0.50;0.40;;;10.90;99.90;;;;;;5053237;28;20214;-75
2022/10/26 00:34:07;;;;;;;0.50;0.40;;;10.90;99.90;;;;;;5051166;28;20469;-75
2022/10/26 00:36:34;;;;;;;0.50;0.40;;;10.90;99.90;;;;;;5052280;28;20538;-75
2022/10/26 00:39:00;;;;;;;0.50;0.40;;;11.00;99.90;;;;;;5052069;28;20551;-75
2022/10/26 00:41:30;;;;;;;0.50;0.40;;;11.00;99.90;;;;;;5053629;28;20544;-74
2022/10/26 00:43:57;;;;;;;0.50;0.40;;;10.90;99.90;;;;;;5051962;28;20238;-74
2022/10/26 00:46:27;;;;;;;0.50;0.40;;;11.00;99.90;;;;;;5053391;28;20946;-74
2022/10/26 00:48:58;;;;;;;0.50;0.40;;;11.00;99.90;;;;;;5052399;28;20205;-75
2022/10/26 00:51:31;;;;;;;0.50;0.40;;;11.00;99.90;;;;;;5054384;28;20211;-74
2022/10/26 00:54:02;;;;;;;0.50;0.40;;;11.00;99.90;;;;;;5055600;28;20969;-75
2022/10/26 00:56:30;;;;;;;0.50;0.40;;;11.10;99.90;;;;;;5057188;28;20194;-76
2022/10/26 00:59:01;;;;;;;0.50;0.40;;;11.10;99.90;;;;;;5057013;28;20455;-77
2022/10/26 01:01:28;;;;;;;0.50;0.40;;;11.10;99.90;;;;;;5057409;28;20437;-77
2022/10/26 01:03:56;;;;;;;0.50;0.40;;;11.10;99.90;;;;;;5054718;28;20218;-78
2022/10/26 01:06:23;;;;;;;0.50;0.40;;;11.20;99.90;;;;;;5056430;28;20441;-76
2022/10/26 01:08:52;;;;;;;0.50;0.40;;;11.30;99.90;;;;;;5056819;28;20441;-76
2022/10/26 01:11:19;;;;;;;0.50;0.40;;;11.30;99.90;;;;;;5057110;28;20532;-76
2022/10/26 01:13:46;;;;;;;0.77;0.77;;;11.30;99.90;;;;;;5056430;28;20222;-76
2022/10/26 01:16:29;;;;;;;0.50;0.40;;;11.20;99.90;;;;;;5057005;28;20829;-76
2022/10/26 01:19:09;;;;;;;0.50;0.40;;;11.30;99.90;;;;;;5055884;28;20190;-76
2022/10/26 01:21:45;;;;;;;0.50;0.40;;;11.20;99.90;;;;;;5056350;28;20266;-76
2022/10/26 01:24:30;;;;;;;0.50;0.40;;;11.20;99.90;;;;;;5055596;28;20460;-76
2022/10/26 01:27:13;;;;;;;0.50;0.40;;;11.20;99.90;;;;;;5055818;28;20198;-76
2022/10/26 01:30:12;;;;;;;0.52;0.40;;;11.20;99.90;;;;;;5055439;28;20278;-76
2022/10/26 01:32:46;;;;;;;0.50;0.40;;;11.10;99.90;;;;;;5055678;28;20195;-76
2022/10/26 01:35:16;;;;;;;0.50;0.40;;;11.10;99.90;;;;;;5055952;28;20185;-76
2022/10/26 01:37:47;;;;;;;0.50;0.40;;;11.10;99.90;;;;;;5056427;28;20448;-75
2022/10/26 01:40:21;;;;;;;0.50;0.40;;;11.00;99.90;;;;;;5055722;28;20453;-76
2022/10/26 01:42:53;;;;;;;0.50;0.40;;;11.00;99.90;;;;;;5055741;28;20183;-76
2022/10/26 01:45:20;;;;;;;0.50;0.40;;;11.10;99.90;;;;;;5055846;28;20270;-76
2022/10/26 01:47:49;;;;;;;0.50;0.40;;;11.10;99.90;;;;;;5055620;28;20191;-76
2022/10/26 01:50:18;;;;;;;0.50;0.40;;;11.20;99.90;;;;;;5055047;28;20278;-76
2022/10/26 01:52:44;;;;;;;0.50;0.40;;;11.20;99.90;;;;;;5054795;28;20195;-76
2022/10/26 01:55:47;;;;;;;10.00;5.55;;;11.20;99.90;;;;;;5054795;28;20316;-76
2022/10/26 01:58:34;;;;;;;0.50;0.40;;;11.20;99.90;;;;;;5049391;28;20198;-76
2022/10/26 02:01:09;;;;;;;0.50;0.40;;;11.30;99.90;;;;;;5054966;28;20566;-76
2022/10/26 02:03:45;;;;;;;0.50;0.40;;;11.30;99.90;;;;;;5054822;28;20225;-76
2022/10/26 02:06:23;;;;;;;0.50;0.40;;;11.20;99.90;;;;;;5054777;28;20451;-76
2022/10/26 02:08:58;;;;;;;0.50;0.40;;;11.20;99.90;;;;;;5055743;28;20205;-76
2022/10/26 02:11:33;;;;;;;0.50;0.40;;;11.30;99.90;;;;;;5055945;28;20432;-76
2022/10/26 02:14:11;;;;;;;0.50;0.40;;;11.30;99.90;;;;;;5056290;28;20552;-76
2022/10/26 02:16:44;;;;;;;0.50;0.40;;;11.30;99.90;;;;;;5056206;28;20421;-76
2022/10/26 02:19:24;;;;;;;0.50;0.40;;;11.30;99.90;;;;;;5054656;28;20424;-76
2022/10/26 02:22:02;;;;;;;0.50;0.40;;;11.30;99.90;;;;;;5054241;28;20852;-76
2022/10/26 02:24:31;;;;;;;0.50;0.40;;;11.30;99.90;;;;;;5053546;28;20214;-76
2022/10/26 02:27:00;;;;;;;0.50;0.40;;;11.30;99.90;;;;;;5053847;28;20437;-76
2022/10/26 02:29:29;;;;;;;0.50;0.40;;;11.20;99.90;;;;;;5053349;28;20456;-76
2022/10/26 02:31:57;;;;;;;0.50;0.40;;;11.20;99.90;;;;;;5054124;28;20475;-76
2022/10/26 02:34:28;;;;;;;0.50;0.40;;;11.30;99.90;;;;;;5053752;28;20473;-76
2022/10/26 02:36:58;;;;;;;0.50;0.40;;;11.30;99.90;;;;;;5055663;28;20448;-76
2022/10/26 02:39:27;;;;;;;0.50;0.40;;;11.30;99.90;;;;;;5053142;28;20441;-76
2022/10/26 02:41:56;;;;;;;0.50;0.40;;;11.40;99.90;;;;;;5053357;28;20521;-76
2022/10/26 02:44:25;;;;;;;0.50;0.40;;;11.40;99.90;;;;;;5052440;28;20556;-76
2022/10/26 02:46:53;;;;;;;0.50;0.40;;;11.30;99.90;;;;;;5053131;28;20538;-76
2022/10/26 02:49:20;;;;;;;0.50;0.40;;;11.40;99.90;;;;;;5052953;28;20998;-76
2022/10/26 02:51:54;;;;;;;0.50;0.40;;;11.40;99.90;;;;;;5052245;28;20950;-76
2022/10/26 02:54:28;;;;;;;0.50;0.40;;;11.40;99.90;;;;;;5052404;28;20556;-76
2022/10/26 02:56:59;;;;;;;0.50;0.40;;;11.40;99.90;;;;;;5053851;28;20440;-76
2022/10/26 02:59:30;;;;;;;0.50;0.40;;;11.50;99.90;;;;;;5052680;28;20520;-76
2022/10/26 03:01:58;;;;;;;0.50;0.40;;;11.50;99.90;;;;;;5052039;28;20960;-76
2022/10/26 03:04:29;;;;;;;0.50;0.30;;;11.50;99.90;;;;;;5052305;28;20465;-76
2022/10/26 03:06:58;;;;;;;0.50;0.40;;;11.50;99.90;;;;;;5052772;28;20518;-76
2022/10/26 03:09:25;;;;;;;0.50;0.40;;;11.50;99.90;;;;;;5052525;28;20444;-76
2022/10/26 03:11:52;;;;;;;0.50;0.30;;;11.60;99.90;;;;;;5052331;28;20437;-76
2022/10/26 03:14:19;;;;;;;0.50;0.40;;;11.60;99.90;;;;;;5051732;28;20540;-76
2022/10/26 03:16:46;;;;;;;0.50;0.40;;;11.70;99.90;;;;;;5051863;28;20449;-76
2022/10/26 03:19:13;;;;;;;0.50;0.40;;;11.60;99.90;;;;;;5052536;28;20441;-76
2022/10/26 03:21:41;;;;;;;0.50;0.40;;;11.60;99.90;;;;;;5053091;28;20481;-77
2022/10/26 03:24:09;;;;;;;2.73;2.53;;;11.60;99.90;;;;;;5051947;28;20468;-77
2022/10/26 03:26:36;;;;;;;0.50;0.40;;;11.60;99.90;;;;;;5052247;28;20940;-75
2022/10/26 03:29:03;;;;;;;0.50;0.40;;;11.60;99.90;;;;;;5052023;28;20455;-76
2022/10/26 03:31:30;;;;;;;0.50;0.40;;;11.70;99.90;;;;;;5052114;28;20940;-76
2022/10/26 03:33:57;;;;;;;0.50;0.40;;;11.70;99.90;;;;;;5051898;28;20544;-76
2022/10/26 03:36:23;;;;;;;0.50;0.40;;;11.70;99.90;;;;;;5052403;28;20451;-76
2022/10/26 03:38:50;;;;;;;0.50;0.40;;;11.70;99.90;;;;;;5051828;28;20448;-76
2022/10/26 03:41:18;;;;;;;0.50;0.40;;;11.70;99.90;;;;;;5051957;28;20372;-77
2022/10/26 03:43:47;;;;;;;0.50;0.40;;;11.60;99.90;;;;;;5051623;28;20547;-76
2022/10/26 03:46:14;;;;;;;0.50;0.40;;;11.70;99.90;;;;;;5051610;28;20926;-76
2022/10/26 03:48:40;;;;;;;0.50;0.40;;;11.70;99.90;;;;;;5052023;28;20963;-76
2022/10/26 03:51:07;;;;;;;0.50;0.40;;;11.70;99.90;;;;;;5051303;28;20532;-76
2022/10/26 03:53:34;;;;;;;0.50;0.40;;;11.70;99.90;;;;;;5051625;28;20461;-77
2022/10/26 03:56:01;;;;;;;0.50;0.40;;;11.70;99.90;;;;;;5051543;28;20477;-76
2022/10/26 03:58:29;;;;;;;0.50;0.40;;;11.70;99.90;;;;;;5052049;28;20609;-76
2022/10/26 04:00:56;;;;;;;0.50;0.40;;;11.70;99.90;;;;;;5051484;28;20272;-75
2022/10/26 04:03:23;;;;;;;0.50;0.40;;;11.70;99.90;;;;;;5051216;28;20468;-77
2022/10/26 04:05:49;;;;;;;0.50;0.40;;;11.70;99.90;;;;;;5051335;28;20441;-76
2022/10/26 04:08:16;;;;;;;0.50;0.38;;;11.70;99.90;;;;;;5051872;28;20528;-76
2022/10/26 04:10:46;;;;;;;0.50;0.40;;;11.70;99.90;;;;;;5051728;28;20191;-76
2022/10/26 04:13:13;;;;;;;0.60;0.50;;;11.80;99.90;;;;;;5051565;28;20465;-75
2022/10/26 04:15:42;;;;;;;0.50;0.40;;;11.90;99.90;;;;;;5050950;28;20195;-76
2022/10/26 04:18:11;;;;;;;0.50;0.40;;;12.00;99.90;;;;;;5046929;28;20446;-77
2022/10/26 04:20:40;;;;;;;0.50;0.37;;;12.10;99.90;;;;;;5037540;28;20466;-76
2022/10/26 04:23:09;;;;;;;0.50;0.40;;;12.20;99.90;;;;;;5036755;28;20509;-76
2022/10/26 04:25:36;;;;;;;0.50;0.40;;;12.30;99.90;;;;;;5041592;28;20439;-77
2022/10/26 04:28:05;;;;;;;0.50;0.40;;;12.50;99.90;;;;;;5037892;28;20451;-76
2022/10/26 04:30:32;;;;;;;0.50;0.40;;;12.60;99.90;;;;;;5041063;28;20470;-76
2022/10/26 04:33:01;;;;;;;0.50;0.40;;;12.70;99.90;;;;;;5039488;28;20482;-76
2022/10/26 04:35:28;;;;;;;0.50;0.40;;;12.80;99.90;;;;;;5038474;28;20443;-76
2022/10/26 04:37:58;;;;;;;0.50;0.40;;;13.00;99.90;;;;;;5031490;28;20442;-76
2022/10/26 04:40:25;;;;;;;0.97;0.90;;;13.10;99.90;;;;;;5030828;28;20465;-76
2022/10/26 04:42:52;;;;;;;0.50;0.40;;;13.20;99.90;;;;;;5031218;28;20990;-76
2022/10/26 04:45:19;;;;;;;0.50;0.40;;;13.40;99.90;;;;;;5031113;28;20533;-76
2022/10/26 04:47:46;;;;;;;0.50;0.40;;;13.60;99.90;;;;;;5031407;28;20460;-76
2022/10/26 04:50:14;;;;;;;0.50;0.40;;;13.70;99.90;;;;;;5031229;28;20514;-76
2022/10/26 04:52:41;;;;;;;0.50;0.40;;;13.80;99.90;;;;;;5030963;28;20951;-76
2022/10/26 04:55:09;;;;;;;0.50;0.40;;;13.90;99.90;;;;;;5030770;28;20442;-76
2022/10/26 04:57:36;;;;;;;0.50;0.40;;;14.00;99.90;;;;;;5031132;28;20476;-76
2022/10/26 05:00:05;;;;;;;0.50;0.30;;;14.10;99.90;;;;;;5031883;28;20462;-76
2022/10/26 05:02:32;;;;;;;0.50;0.40;;;14.30;99.90;;;;;;5031440;28;20474;-76
2022/10/26 05:04:59;;;;;;;0.50;0.40;;;14.40;99.90;;;;;;5030706;28;20888;-74
2022/10/26 05:07:27;;;;;;;0.50;0.30;;;14.40;99.90;;;;;;5031200;28;20437;-76
2022/10/26 05:09:54;;;;;;;0.50;0.30;;;14.40;99.90;;;;;;5031186;28;20529;-76
2022/10/26 05:12:20;;;;;;;0.50;0.30;;;14.50;99.90;;;;;;5030932;28;20436;-76
2022/10/26 05:14:47;;;;;;;0.50;0.33;;;14.60;99.90;;;;;;5030308;28;20468;-76
2022/10/26 05:17:14;;;;;;;0.50;0.30;;;14.70;99.90;;;;;;5030831;28;20472;-76
2022/10/26 05:19:41;;;;;;;0.50;0.30;;;14.70;99.90;;;;;;5030667;28;20440;-76
2022/10/26 05:22:08;;;;;;;0.50;0.40;;;14.80;99.90;;;;;;5030879;28;20484;-76
2022/10/26 05:24:36;;;;;;;0.50;0.40;;;14.80;99.90;;;;;;5030556;28;20462;-76
2022/10/26 05:27:03;;;;;;;0.50;0.40;;;14.80;99.90;;;;;;5030557;28;20517;-75
2022/10/26 05:29:30;;;;;;;0.50;0.30;;;14.80;99.90;;;;;;5030053;28;20448;-76
2022/10/26 05:31:56;;;;;;;0.80;0.70;;;14.80;99.90;;;;;;5030479;28;20477;-76
2022/10/26 05:34:23;;;;;;;0.50;0.40;;;14.90;99.90;;;;;;5029896;28;20472;-76
2022/10/26 05:36:53;;;;;;;0.50;0.40;;;14.90;99.90;;;;;;5035642;28;20458;-76
2022/10/26 05:39:20;;;;;;;0.50;0.40;;;15.00;99.90;;;;;;5049759;28;20436;-76
2022/10/26 05:41:48;;;;;;;0.50;0.30;;;15.00;99.90;;;;;;5054399;28;20630;-76
2022/10/26 05:44:15;;;;;;;0.50;0.40;;;15.00;99.90;;;;;;5053745;28;20636;-76
2022/10/26 05:46:42;;;;;;;4.03;1.50;;;15.00;99.90;;;;;;5053959;28;20437;-76
2022/10/26 05:49:08;;;;;;;9.60;0.70;;;15.00;99.90;;;;;;5054136;28;20608;-76
2022/10/26 05:51:36;;;;;;;0.50;0.40;;;15.00;99.90;;;;;;5054700;28;20802;-77
2022/10/26 05:54:03;;;;;;;0.70;0.67;;;15.10;99.90;;;;;;5053200;28;20594;-76
2022/10/26 05:56:35;;;;;;;0.60;0.40;;;15.10;99.90;;;;;;5053840;28;20460;-76
2022/10/26 05:59:04;;;;;;;0.60;0.50;;;15.10;99.90;;;;;;5053656;28;20512;-76
2022/10/26 06:01:39;;;;;;;0.50;0.40;;;15.10;99.90;;;;;;5053854;28;20481;-76
2022/10/26 06:04:18;;;;;;;0.50;0.40;;;15.00;99.90;;;;;;5053017;28;20464;-76
2022/10/26 06:06:47;;;;;;;0.50;0.40;;;15.00;99.90;;;;;;5053790;28;20425;-75
2022/10/26 06:09:15;;;;;;;0.50;0.40;;;15.00;99.90;;;;;;5053614;28;20437;-76
2022/10/26 06:11:42;;;;;;;0.50;0.40;;;15.00;99.90;;;;;;5053717;28;20452;-76
2022/10/26 06:14:11;;;;;;;0.50;0.40;;;15.00;99.90;;;;;;5052813;28;20483;-76
2022/10/26 06:16:48;;;;;;;0.50;0.40;;;15.10;99.90;;;;;;5053389;28;20443;-77
2022/10/26 06:19:27;;;;;;;0.50;0.40;;;15.00;99.90;;;;;;5053489;28;20437;-76
2022/10/26 06:22:06;;;;;;;0.50;0.40;;;15.10;99.90;;;;;;5053006;28;20866;-76
2022/10/26 06:24:43;;;;;;;0.50;0.40;;;15.00;99.90;;;;;;5050999;28;20459;-76
2022/10/26 06:27:24;;;;;;;0.50;0.30;;;15.10;99.90;;;;;;5052111;28;20449;-76
2022/10/26 06:29:58;;;;;;;0.50;0.40;;;15.00;99.90;;;;;;5053220;28;20445;-75
2022/10/26 06:32:25;;;;;;;0.50;0.40;;;15.10;99.90;;;;;;5053666;28;21021;-76
2022/10/26 06:34:59;;;;;;;0.50;0.40;;;15.20;99.90;;;;;;5053112;28;20457;-76
2022/10/26 06:37:28;;;;;;;0.50;0.30;;;15.20;99.90;;;;;;5052947;28;20814;-76
2022/10/26 06:39:57;;;;;;;0.50;0.40;;;15.30;99.90;;;;;;5052690;28;20830;-75
2022/10/26 06:42:24;;;;;;;0.50;0.30;;;15.30;99.90;;;;;;5052606;28;20480;-76
2022/10/26 06:44:53;;;;;;;0.50;0.40;;;15.30;99.90;;;;;;5052607;28;20492;-76
2022/10/26 06:47:26;;;;;;;0.50;0.30;;;15.30;99.90;;;;;;5052568;28;20443;-76
2022/10/26 06:50:03;;;;;;;0.50;0.30;;;15.40;99.90;;;;;;5052675;28;20429;-75
2022/10/26 06:52:35;;;;;;;0.50;0.30;;;15.40;99.90;;;;;;5052404;28;20421;-76
2022/10/26 06:55:04;;;;;;;0.50;0.40;;;15.50;99.90;;;;;;5052231;28;20536;-76
2022/10/26 06:57:35;;;;;;;0.50;0.30;;;15.50;99.90;;;;;;5053042;28;20461;-77
2022/10/26 07:00:07;;;;;;;0.60;0.50;;;15.60;99.90;;;;;;5052496;28;20424;-76
2022/10/26 07:02:34;;;;;;;0.50;0.30;;;15.70;99.90;;;;;;5051948;28;20472;-76
2022/10/26 07:05:00;;;;;;;0.50;0.30;;;15.70;99.90;;;;;;5052128;28;20457;-75
2022/10/26 07:07:30;;;;;;;0.50;0.40;;;15.80;99.90;;;;;;5052579;28;20433;-76
2022/10/26 07:09:57;;;;;;;0.50;0.30;;;15.90;99.90;;;;;;5052274;28;20445;-76
2022/10/26 07:12:24;;;;;;;0.50;0.30;;;15.90;99.90;;;;;;5052448;28;20432;-76
2022/10/26 07:14:51;;;;;;;0.50;0.40;;;16.00;99.90;;;;;;5051556;28;20548;-76
2022/10/26 07:17:19;;;;;;;0.50;0.40;;;16.10;99.90;;;;;;5052688;28;20452;-76
2022/10/26 07:19:45;;;;;;;0.50;0.30;;;16.10;99.90;;;;;;5052090;28;20854;-74
2022/10/26 07:22:12;;;;;;;0.50;0.40;;;16.10;99.90;;;;;;5052391;28;20481;-75
2022/10/26 07:24:40;;;;;;;1.17;1.00;;;16.20;99.90;;;;;;5051256;28;20978;-75
2022/10/26 07:27:07;;;;;;;0.50;0.40;;;16.20;99.90;;;;;;5051870;28;20444;-75
2022/10/26 07:29:35;;;;;;;1.83;0.40;;;16.20;99.90;;;;;;5051653;28;20441;-75
2022/10/26 07:32:01;;;;;;;0.50;0.30;;;16.30;99.90;;;;;;5051617;28;20441;-75
2022/10/26 07:34:30;;;;;;;0.50;0.40;;;16.30;99.90;;;;;;5051604;28;20461;-75
2022/10/26 07:36:58;;;;;;;0.50;0.30;;;16.50;99.90;;;;;;5051581;28;20529;-75
2022/10/26 07:39:25;;;;;;;0.50;0.40;;;16.90;99.90;;;;;;5051841;28;20442;-75
2022/10/26 07:41:52;;;;;;;0.50;0.30;;;17.50;99.90;;;;;;5051754;28;20481;-75
2022/10/26 07:44:19;;;;;;;0.50;0.30;;;18.40;99.90;;;;;;5050954;28;20496;-75
2022/10/26 07:46:46;;;;;;;0.87;0.87;;;19.50;99.90;;;;;;5051896;28;20520;-75
2022/10/26 07:49:12;;;;;;;0.50;0.30;;;20.60;99.90;;;;;;5051474;28;20484;-75
2022/10/26 07:51:41;;;;;;;0.50;0.30;;;20.70;99.90;;;;;;5051664;28;20472;-75
2022/10/26 07:54:08;;;;;;;0.77;0.77;;;20.20;99.90;;;;;;5050581;28;21029;-75
2022/10/26 07:56:34;;;;;;;1.17;0.60;;;19.70;99.90;;;;;;5051214;28;20455;-75
2022/10/26 07:59:01;;;;;;;0.80;0.80;;;19.20;99.90;;;;;;5051537;28;20441;-75
2022/10/26 08:01:28;;;;;;;0.50;0.30;;;19.60;99.90;;;;;;5051581;28;20853;-75
2022/10/26 08:03:55;;;;;;;0.60;0.60;;;20.00;99.90;;;;;;5050649;28;20523;-75
2022/10/26 08:06:22;;;;;;;0.60;0.53;;;19.90;99.90;;;;;;5051138;28;20445;-75
2022/10/26 08:08:51;;;;;;;2.53;2.30;;;19.30;99.90;;;;;;5051167;28;20953;-73
2022/10/26 08:11:18;;;;;;;0.50;0.30;;;19.20;99.90;;;;;;5051553;28;20515;-75
2022/10/26 08:13:45;;;;;;;0.50;0.30;;;19.00;99.90;;;;;;5050991;28;20457;-75
2022/10/26 08:16:13;;;;;;;2.10;0.60;;;18.90;99.90;;;;;;5050696;28;20532;-75
2022/10/26 08:18:39;;;;;;;0.50;0.30;;;19.00;99.90;;;;;;5051351;28;20487;-75
2022/10/26 08:21:09;;;;;;;0.50;0.30;;;19.40;99.90;;;;;;5051260;28;20541;-75
2022/10/26 08:23:36;;;;;;;0.50;0.30;;;20.80;99.90;;;;;;5050655;28;20471;-76
2022/10/26 08:26:04;;;;;;;0.50;0.40;;;22.40;99.90;;;;;;5050862;28;20539;-76
2022/10/26 08:28:31;;;;;;;0.50;0.30;;;23.80;99.90;;;;;;5050995;28;20437;-76
2022/10/26 08:30:58;;;;;;;0.50;0.40;;;25.10;99.90;;;;;;5051031;28;20433;-75
2022/10/26 08:33:25;;;;;;;0.50;0.40;;;25.60;95.60;;;;;;5051435;28;20536;-75
2022/10/26 08:35:55;;;;;;;0.50;0.40;;;25.80;93.20;;;;;;5050597;28;20448;-76
2022/10/26 08:38:22;;;;;;;0.50;0.40;;;26.20;91.40;;;;;;5051001;28;20532;-75
2022/10/26 08:40:49;;;;;;;0.50;0.30;;;26.40;90.90;;;;;;5050925;28;20441;-76
2022/10/26 08:43:25;;;;;;;1.27;0.63;;;27.70;88.40;;;;;;5051398;28;20912;-76
2022/10/26 08:45:55;;;;;;;0.50;0.30;;;28.20;81.90;;;;;;5050657;28;20437;-75
2022/10/26 08:48:26;;;;;;;1.37;0.37;;;28.10;79.20;;;;;;5051490;28;20429;-75
2022/10/26 08:50:55;;;;;;;0.60;0.50;;;27.70;78.80;;;;;;5050944;28;20842;-75
2022/10/26 08:53:29;;;;;;;0.97;0.93;;;27.10;80.30;;;;;;5050818;28;20564;-75
2022/10/26 08:56:00;;;;;;;0.50;0.40;;;26.90;81.00;;;;;;5051645;28;20513;-75
2022/10/26 08:58:36;;;;;;;0.80;0.63;;;26.30;82.00;;;;;;5050822;28;20445;-75
2022/10/26 09:01:04;;;;;;;1.20;0.50;;;26.00;83.90;;;;;;5050340;28;20770;-76
2022/10/26 09:03:31;;;;;;;1.67;1.33;;;25.70;84.10;;;;;;5050373;28;20477;-75
2022/10/26 09:06:25;;;;;;;0.50;0.40;;;25.00;86.40;;;;;;5050440;28;20441;-75
2022/10/26 09:09:01;;;;;;;0.50;0.40;;;24.20;89.90;;;;;;5050829;28;20443;-75
2022/10/26 09:11:51;;;;;;;0.50;0.40;;;23.20;93.80;;;;;;5050592;28;20425;-75
2022/10/26 09:14:24;;;;;;;0.60;0.57;;;22.50;98.50;;;;;;5051940;28;20859;-75
2022/10/26 09:17:02;;;;;;;0.50;0.40;;;22.50;99.90;;;;;;5054251;28;20440;-75
2022/10/26 09:20:09;;;;;;;0.60;0.53;;;22.20;99.90;;;;;;5054525;28;20435;-75
2022/10/26 09:22:46;;;;;;;0.50;0.40;;;21.20;99.90;;;;;;5054649;28;20572;-77
2022/10/26 09:25:19;;;;;;;0.60;0.50;;;20.60;99.90;;;;;;5053894;28;20427;-77
2022/10/26 09:27:50;;;;;;;0.50;0.30;;;20.30;99.90;;;;;;5054398;28;20806;-74
2022/10/26 09:30:20;;;;;;;0.97;0.77;;;20.10;99.90;;;;;;5054201;28;20452;-74
2022/10/26 09:32:49;;;;;;;0.60;0.50;;;19.90;99.90;;;;;;5054131;28;20433;-75
2022/10/26 09:35:20;;;;;;;0.50;0.33;;;19.80;99.90;;;;;;5053697;28;20536;-75
2022/10/26 09:37:51;;;;;;;0.60;0.40;;;19.80;99.90;;;;;;5054166;28;20468;-75
2022/10/26 09:40:25;;;;;;;5.80;1.07;;;19.80;99.90;;;;;;5053600;28;20440;-75
2022/10/26 09:42:59;;;;;;;27.83;1.70;;;19.80;99.90;;;;;;5053977;28;20565;-75
2022/10/26 09:45:30;;;;;;;2.70;2.60;;;19.50;99.90;;;;;;5053411;28;20532;-75
2022/10/26 09:48:04;;;;;;;1.00;0.90;;;19.30;99.90;;;;;;5053941;28;20449;-75
2022/10/26 09:50:34;;;;;;;0.50;0.30;;;19.20;99.90;;;;;;5054144;28;20443;-75
2022/10/26 09:53:01;;;;;;;0.77;0.77;;;19.30;99.90;;;;;;5053705;28;20467;-75
2022/10/26 09:55:29;;;;;;;0.73;0.73;;;19.40;99.90;;;;;;5053734;28;20429;-75
2022/10/26 09:58:00;;;;;;;0.50;0.40;;;19.50;99.90;;;;;;5053572;28;20441;-76
2022/10/26 10:00:29;;;;;;;0.50;0.37;;;19.80;99.90;;;;;;5053915;28;20524;-75
2022/10/26 10:02:57;;;;;;;2.00;1.00;;;19.80;99.90;;;;;;5053033;28;20489;-76
2022/10/26 10:05:27;;;;;;;0.63;0.57;;;19.60;99.90;;;;;;5053338;28;20636;-75
2022/10/26 10:08:10;;;;;;;0.50;0.40;;;19.20;99.90;;;;;;5053369;28;20436;-75
2022/10/26 10:10:38;;;;;;;0.60;0.47;;;19.00;99.90;;;;;;5053935;28;20421;-75
2022/10/26 10:13:15;;;;;;;0.60;0.50;;;19.10;99.90;;;;;;5053250;28;20465;-75
2022/10/26 10:15:52;;;;;;;0.80;0.50;;;19.00;99.90;;;;;;5053139;28;20461;-76
2022/10/26 10:18:21;;;;;;;0.60;0.60;;;19.00;99.90;;;;;;5053268;28;20436;-76
2022/10/26 10:20:53;;;;;;;2.40;1.23;;;19.20;99.90;;;;;;5053310;28;20445;-75
2022/10/26 10:23:29;;;;;;;0.80;0.60;;;19.10;99.90;;;;;;5052846;28;20576;-75
2022/10/26 10:26:04;;;;;;;0.50;0.30;;;19.30;99.90;;;;;;5053132;28;20440;-75
2022/10/26 10:28:32;;;;;;;0.60;0.50;;;19.40;99.90;;;;;;5053788;28;20432;-76
2022/10/26 10:31:01;;;;;;;0.50;0.50;;;19.70;99.90;;;;;;5053013;28;20858;-75
2022/10/26 10:33:40;;;;;;;0.60;0.60;;;19.80;99.90;;;;;;5052742;28;20535;-76
2022/10/26 10:36:11;;;;;;;1.03;0.93;;;20.10;99.90;;;;;;5052905;28;20469;-75
2022/10/26 10:38:40;;;;;;;0.90;0.70;;;20.60;99.90;;;;;;5053058;28;20439;-75
2022/10/26 10:41:24;;;;;;;0.60;0.50;;;21.00;99.90;;;;;;5053038;28;20433;-76
2022/10/26 10:43:54;;;;;;;0.50;0.37;;;21.60;99.90;;;;;;5052491;28;20476;-75
2022/10/26 10:46:25;;;;;;;0.60;0.50;;;22.00;99.90;;;;;;5052529;28;20803;-74
2022/10/26 10:49:02;;;;;;;0.90;0.80;;;22.10;99.90;;;;;;5053510;28;20445;-75
2022/10/26 10:51:31;;;;;;;0.80;0.50;;;22.40;99.90;;;;;;5052563;28;20778;-74
2022/10/26 10:53:58;;;;;;;0.50;0.40;;;22.60;99.90;;;;;;5051998;28;20473;-75
2022/10/26 10:56:35;;;;;;;1.77;1.07;;;22.50;99.90;;;;;;5052629;28;20453;-75
2022/10/26 10:59:21;;;;;;;0.83;0.70;;;22.40;99.90;;;;;;5052653;28;20776;-75
2022/10/26 11:02:03;;;;;;;0.50;0.37;;;21.90;99.90;;;;;;5052245;28;20478;-75
2022/10/26 11:04:50;;;;;;;0.50;0.40;;;22.00;99.90;;;;;;5052660;28;20923;-75
2022/10/26 11:07:18;;;;;;;0.60;0.40;;;21.90;99.90;;;;;;5052595;28;20532;-75
2022/10/26 11:09:47;;;;;;;0.70;0.70;;;21.70;99.90;;;;;;5051826;28;20962;-75
2022/10/26 11:12:17;;;;;;;1.00;0.70;;;21.80;99.90;;;;;;5051911;28;20651;-75
2022/10/26 11:14:48;;;;;;;3.27;2.93;;;21.40;99.90;;;;;;5052234;28;20457;-73
2022/10/26 11:17:21;;;;;;;0.60;0.40;;;20.90;99.90;;;;;;5051758;28;20433;-75
2022/10/26 11:19:53;;;;;;;0.50;0.40;;;20.80;99.90;;;;;;5052606;28;20560;-76
2022/10/26 11:22:24;;;;;;;1.47;1.00;;;21.00;99.90;;;;;;5052084;28;20453;-75
2022/10/26 11:24:58;;;;;;;0.60;0.50;;;20.70;99.90;;;;;;5051382;28;20475;-75
2022/10/26 11:27:31;;;;;;;1.77;1.03;;;20.80;99.90;;;;;;5051982;28;20425;-75
2022/10/26 11:30:03;;;;;;;0.60;0.50;;;20.70;99.90;;;;;;5051801;28;20443;-75
2022/10/26 11:32:37;;;;;;;0.80;0.70;;;20.50;99.90;;;;;;5052178;28;20441;-75
2022/10/26 11:35:11;;;;;;;0.90;0.80;;;20.70;99.90;;;;;;5051573;28;20543;-75
2022/10/26 11:37:45;;;;;;;2.73;1.23;;;21.00;99.90;;;;;;5051340;28;20567;-75
2022/10/26 11:40:25;;;;;;;0.50;0.40;;;21.00;99.90;;;;;;5052001;28;20539;-75
2022/10/26 11:43:00;;;;;;;2.97;1.23;;;21.00;99.90;;;;;;5052067;28;20843;-75
2022/10/26 11:45:31;;;;;;;1.23;1.00;;;20.80;99.90;;;;;;5050844;28;20855;-76
2022/10/26 11:48:04;;;;;;;0.73;0.73;;;20.80;99.90;;;;;;5051872;28;20448;-75
2022/10/26 11:50:34;;;;;;;1.17;1.07;;;20.60;99.90;;;;;;5052372;28;20455;-75
2022/10/26 11:53:06;;;;;;;1.77;1.03;;;20.70;99.90;;;;;;5051121;28;20445;-76
2022/10/26 11:55:33;;;;;;;1.33;1.23;;;20.80;99.90;;;;;;5051637;28;20428;-75
2022/10/26 11:58:01;;;;;;;4.13;3.80;;;20.90;99.90;;;;;;5051168;28;21032;-75
2022/10/26 12:00:29;;;;;;;0.60;0.40;;;21.00;99.90;;;;;;5051721;28;20447;-76
2022/10/26 12:03:02;;;;;;;1.00;1.00;;;21.00;99.90;;;;;;5051008;28;21008;-75
2022/10/26 12:05:41;;;;;;;2.53;1.03;;;21.00;99.90;;;;;;5051422;28;20475;-76
2022/10/26 12:08:16;;;;;;;1.63;0.80;;;21.00;99.90;;;;;;5051158;28;20567;-75
2022/10/26 12:10:47;;;;;;;0.50;0.40;;;20.90;99.90;;;;;;5051004;28;20441;-75
2022/10/26 12:13:26;;;;;;;0.70;0.60;;;20.90;99.90;;;;;;5051083;28;20982;-75
2022/10/26 12:15:59;;;;;;;0.80;0.60;;;20.90;99.90;;;;;;5050886;28;20425;-75
2022/10/26 12:18:37;;;;;;;1.57;0.70;;;20.80;99.90;;;;;;5051057;28;20444;-77
2022/10/26 12:21:06;;;;;;;2.80;2.37;;;20.70;99.90;;;;;;5051680;28;20431;-75
2022/10/26 12:23:36;;;;;;;0.70;0.60;;;20.70;99.90;;;;;;5050329;28;20491;-77
2022/10/26 12:26:48;;;;;;;0.50;0.50;;;20.50;99.90;;;;;;5051304;28;20870;-77
2022/10/26 12:29:37;;;;;;;0.50;0.40;;;20.50;99.90;;;;;;5050467;28;20525;-75
2022/10/26 12:32:25;;;;;;;4.10;0.90;;;20.60;99.90;;;;;;5050930;28;20810;-75
2022/10/26 12:35:02;;;;;;;1.33;0.70;;;20.70;99.90;;;;;;5050583;28;20465;-75
2022/10/26 12:37:33;;;;;;;0.50;0.40;;;20.80;99.90;;;;;;5051140;28;20522;-74
2022/10/26 12:40:33;;;;;;;0.60;0.40;;;20.60;99.90;;;;;;5050789;28;20417;-75
2022/10/26 12:43:35;;;;;;;0.77;0.73;;;20.40;99.90;;;;;;5050592;28;20473;-75
2022/10/26 12:46:42;;;;;;;0.50;0.30;;;20.30;99.90;;;;;;5050647;28;20433;-75
2022/10/26 12:49:57;;;;;;;1.10;0.83;;;20.40;99.90;;;;;;5051893;28;20433;-75
2022/10/26 12:52:35;;;;;;;1.33;0.90;;;20.40;99.90;;;;;;5054529;28;20972;-75
2022/10/26 12:55:39;;;;;;;3.70;1.10;;;20.60;99.90;;;;;;5054420;28;20800;-76
2022/10/26 12:58:31;;;;;;;1.13;1.13;;;20.60;99.90;;;;;;5054695;28;20451;-76
2022/10/26 13:01:28;;;;;;;0.70;0.70;;;20.80;99.90;;;;;;5044101;28;20841;-76
2022/10/26 13:04:19;;;;;;;3.03;0.47;;;21.00;99.90;;;;;;5053529;28;20480;-76
2022/10/26 13:07:13;;;;;;;0.70;0.60;;;20.90;99.90;;;;;;5055455;28;20491;-77
2022/10/26 13:09:46;;;;;;;0.50;0.40;;;21.20;99.90;;;;;;5056460;28;20472;-77
2022/10/26 13:12:12;;;;;;;0.50;0.30;;;21.40;99.90;;;;;;5056698;28;20431;-77